createdAt,value
2017-12-26T00:01:46.763Z,2.90
2017-12-26T00:04:14.399Z,2.90
2017-12-26T00:06:42.025Z,3.00
2017-12-26T00:09:10.461Z,2.90
2017-12-26T00:11:38.129Z,2.90
2017-12-26T00:14:05.766Z,2.90
2017-12-26T00:16:33.439Z,3.00
2017-12-26T00:19:01.853Z,2.90
2017-12-26T00:21:29.491Z,2.90
2017-12-26T00:23:57.227Z,2.90
2017-12-26T00:26:24.858Z,2.90
2017-12-26T00:28:52.509Z,2.90
2017-12-26T00:31:20.149Z,2.90
2017-12-26T00:33:48.557Z,2.80
2017-12-26T00:36:16.247Z,2.70
2017-12-26T00:38:44.650Z,2.70
2017-12-26T00:41:12.313Z,2.60
2017-12-26T00:43:39.955Z,2.60
2017-12-26T00:46:08.423Z,2.50
2017-12-26T00:48:36.116Z,2.50
2017-12-26T00:51:04.730Z,2.40
2017-12-26T00:53:32.389Z,2.30
2017-12-26T00:56:00.025Z,2.20
2017-12-26T00:58:27.704Z,2.10
2017-12-26T01:00:55.429Z,1.90
2017-12-26T01:03:23.056Z,1.80
2017-12-26T01:05:50.718Z,1.70
2017-12-26T01:08:18.358Z,1.60
2017-12-26T01:10:46.025Z,1.50
2017-12-26T01:13:13.677Z,1.50
2017-12-26T01:15:41.315Z,1.40
2017-12-26T01:18:08.977Z,1.30
2017-12-26T01:20:36.838Z,1.30
2017-12-26T01:23:04.485Z,1.10
2017-12-26T01:25:32.140Z,1.10
2017-12-26T01:28:00.546Z,1.10
2017-12-26T01:30:28.407Z,1.10
2017-12-26T01:32:56.074Z,1.10
2017-12-26T01:35:23.837Z,1.20
2017-12-26T01:37:51.495Z,1.20
2017-12-26T01:40:19.134Z,1.20
2017-12-26T01:42:46.994Z,1.20
2017-12-26T01:45:14.636Z,1.10
2017-12-26T01:47:42.269Z,1.00
2017-12-26T01:50:10.815Z,1.00
2017-12-26T01:52:39.898Z,1.20
2017-12-26T01:55:07.786Z,1.30
2017-12-26T01:57:35.425Z,1.30
2017-12-26T02:00:03.078Z,1.20
2017-12-26T02:02:30.745Z,1.10
2017-12-26T02:04:58.382Z,1.00
2017-12-26T02:07:26.975Z,0.90
2017-12-26T02:09:54.610Z,0.90
2017-12-26T02:12:23.026Z,0.90
2017-12-26T02:14:50.685Z,0.80
2017-12-26T02:17:18.315Z,1.00
2017-12-26T02:19:46.142Z,0.90
2017-12-26T02:22:13.859Z,0.80
2017-12-26T02:24:41.540Z,0.70
2017-12-26T02:27:10.033Z,0.70
2017-12-26T02:29:37.733Z,0.70
2017-12-26T02:32:06.222Z,0.60
2017-12-26T02:34:33.857Z,0.50
2017-12-26T02:37:01.498Z,0.60
2017-12-26T02:39:29.177Z,0.60
2017-12-26T02:41:57.078Z,0.60
2017-12-26T02:44:24.827Z,0.60
2017-12-26T02:46:53.214Z,0.60
2017-12-26T02:49:20.849Z,0.50
2017-12-26T02:51:48.590Z,0.50
2017-12-26T02:54:16.245Z,0.50
2017-12-26T02:56:43.968Z,0.40
2017-12-26T02:59:11.599Z,0.40
2017-12-26T03:01:39.241Z,0.40
2017-12-26T03:04:07.101Z,0.40
2017-12-26T03:06:34.844Z,0.40
2017-12-26T03:09:02.528Z,0.30
2017-12-26T03:11:30.935Z,0.20
2017-12-26T03:13:58.650Z,0.10
2017-12-26T03:16:26.357Z,0.10
2017-12-26T03:18:53.987Z,0.10
2017-12-26T03:21:21.680Z,0.10
2017-12-26T03:23:49.348Z,0.10
2017-12-26T03:26:17.154Z,0.00
2017-12-26T03:28:44.836Z,0.00
2017-12-26T03:31:12.464Z,0.00
2017-12-26T03:33:40.138Z,0.00
2017-12-26T03:36:08.042Z,-0.10
2017-12-26T03:38:35.763Z,0.10
2017-12-26T03:41:03.433Z,0.10
2017-12-26T03:43:31.111Z,0.10
2017-12-26T03:45:59.546Z,0.40
2017-12-26T03:48:27.182Z,0.30
2017-12-26T03:50:54.806Z,0.50
2017-12-26T03:53:22.485Z,0.40
2017-12-26T03:55:50.909Z,0.30
2017-12-26T03:58:18.574Z,0.20
2017-12-26T04:00:46.220Z,0.30
2017-12-26T04:03:13.869Z,0.30
2017-12-26T04:05:41.529Z,0.30
2017-12-26T04:08:09.167Z,0.30
2017-12-26T04:10:37.108Z,0.20
2017-12-26T04:13:04.738Z,0.20
2017-12-26T04:15:32.367Z,0.10
2017-12-26T04:18:00.019Z,0.10
2017-12-26T04:20:27.730Z,0.10
2017-12-26T04:22:55.395Z,0.10
2017-12-26T04:25:23.054Z,0.00
2017-12-26T04:27:50.691Z,0.00
2017-12-26T04:30:18.356Z,0.00
2017-12-26T04:32:46.897Z,0.10
2017-12-26T04:35:14.575Z,0.00
2017-12-26T04:37:42.213Z,0.00
2017-12-26T04:40:10.620Z,-0.10
2017-12-26T04:42:38.690Z,-0.10
2017-12-26T04:45:06.338Z,-0.10
2017-12-26T04:47:34.003Z,-0.10
2017-12-26T04:50:01.658Z,-0.10
2017-12-26T04:52:29.384Z,-0.10
2017-12-26T04:54:57.252Z,-0.10
2017-12-26T04:57:24.966Z,-0.10
2017-12-26T04:59:52.650Z,-0.20
2017-12-26T05:02:20.299Z,-0.20
2017-12-26T05:04:48.069Z,-0.20
2017-12-26T05:07:15.742Z,-0.20
2017-12-26T05:09:43.406Z,-0.20
2017-12-26T05:12:11.070Z,-0.30
2017-12-26T05:14:38.693Z,-0.30
2017-12-26T05:17:06.353Z,-0.30
2017-12-26T05:19:34.088Z,-0.20
2017-12-26T05:22:01.734Z,-0.20
2017-12-26T05:24:29.391Z,-0.30
2017-12-26T05:26:57.079Z,-0.20
2017-12-26T05:29:24.714Z,-0.30
2017-12-26T05:31:52.375Z,-0.30
2017-12-26T05:34:20.031Z,-0.30
2017-12-26T05:36:48.461Z,-0.20
2017-12-26T05:39:16.146Z,-0.30
2017-12-26T05:41:43.792Z,-0.30
2017-12-26T05:44:11.556Z,-0.30
2017-12-26T05:46:39.209Z,-0.10
2017-12-26T05:49:07.081Z,0.20
2017-12-26T05:51:34.720Z,0.50
2017-12-26T05:54:02.350Z,0.60
2017-12-26T05:56:30.010Z,0.50
2017-12-26T05:58:57.753Z,0.50
2017-12-26T06:01:25.414Z,1.10
2017-12-26T06:03:53.046Z,1.20
2017-12-26T06:06:20.662Z,1.50
2017-12-26T06:08:49.270Z,1.70
2017-12-26T06:11:17.018Z,2.10
2017-12-26T06:13:44.677Z,2.20
2017-12-26T06:16:12.328Z,2.20
2017-12-26T06:18:39.966Z,2.30
2017-12-26T06:21:07.880Z,2.50
2017-12-26T06:23:35.517Z,2.50
2017-12-26T06:26:03.939Z,2.50
2017-12-26T06:28:31.550Z,2.50
2017-12-26T06:30:59.196Z,2.50
2017-12-26T06:33:27.043Z,2.40
2017-12-26T06:35:54.670Z,2.30
2017-12-26T06:38:23.136Z,2.00
2017-12-26T06:40:50.786Z,2.00
2017-12-26T06:43:18.394Z,1.90
2017-12-26T06:45:46.224Z,1.80
2017-12-26T06:48:13.853Z,1.90
2017-12-26T06:50:41.527Z,1.90
2017-12-26T06:53:09.181Z,2.00
2017-12-26T06:55:38.157Z,2.20
2017-12-26T06:58:05.834Z,2.20
2017-12-26T07:00:33.470Z,2.30
2017-12-26T07:03:01.143Z,2.20
2017-12-26T07:05:28.747Z,2.20
2017-12-26T07:07:56.456Z,2.10
2017-12-26T07:10:24.102Z,2.00
2017-12-26T07:12:51.718Z,1.90
2017-12-26T07:15:19.377Z,1.80
2017-12-26T07:17:47.947Z,1.70
2017-12-26T07:20:21.265Z,1.60
2017-12-26T07:22:48.902Z,1.80
2017-12-26T07:25:16.681Z,1.70
2017-12-26T07:27:44.371Z,1.70
2017-12-26T07:30:12.011Z,1.80
2017-12-26T07:32:39.673Z,2.10
2017-12-26T07:35:07.303Z,2.70
2017-12-26T07:37:35.701Z,3.20
2017-12-26T07:40:03.356Z,3.10
2017-12-26T07:42:31.002Z,3.30
2017-12-26T07:44:58.692Z,3.50
2017-12-26T07:47:26.353Z,3.70
2017-12-26T07:49:53.972Z,3.80
2017-12-26T07:52:21.652Z,3.80
2017-12-26T07:54:50.038Z,3.80
2017-12-26T07:57:17.762Z,3.80
2017-12-26T07:59:45.463Z,4.00
2017-12-26T08:02:13.081Z,4.10
2017-12-26T08:04:40.745Z,4.10
2017-12-26T08:07:08.448Z,4.20
2017-12-26T08:09:37.024Z,4.20
2017-12-26T08:12:05.425Z,4.20
2017-12-26T08:14:33.056Z,4.10
2017-12-26T08:17:00.706Z,4.20
2017-12-26T08:19:28.325Z,4.30
2017-12-26T08:21:56.990Z,4.30
2017-12-26T08:24:25.452Z,4.40
2017-12-26T08:26:53.856Z,4.40
2017-12-26T08:29:21.512Z,4.40
2017-12-26T08:31:49.187Z,4.40
2017-12-26T08:34:16.998Z,4.40
2017-12-26T08:36:48.570Z,4.50
2017-12-26T08:39:16.256Z,4.60
2017-12-26T08:41:43.900Z,4.50
2017-12-26T08:44:12.759Z,4.50
2017-12-26T08:46:40.622Z,4.50
2017-12-26T08:49:09.651Z,4.60
2017-12-26T08:51:55.486Z,4.60
2017-12-26T08:54:23.166Z,4.60
2017-12-26T08:56:50.770Z,4.60
2017-12-26T08:59:19.213Z,4.70
2017-12-26T09:01:46.998Z,4.60
2017-12-26T09:04:14.662Z,4.70
2017-12-26T09:06:42.438Z,4.80
2017-12-26T09:09:10.181Z,4.80
2017-12-26T09:11:37.873Z,4.80
2017-12-26T09:14:05.534Z,4.80
2017-12-26T09:16:33.195Z,4.80
2017-12-26T09:19:00.814Z,4.80
2017-12-26T09:21:29.215Z,4.90
2017-12-26T09:23:59.767Z,4.80
2017-12-26T09:26:27.403Z,4.80
2017-12-26T09:28:55.968Z,4.80
2017-12-26T09:31:24.390Z,4.90
2017-12-26T09:33:52.018Z,4.90
2017-12-26T09:36:20.507Z,4.90
2017-12-26T09:38:48.225Z,5.00
2017-12-26T09:41:15.855Z,5.00
2017-12-26T09:43:43.517Z,5.20
2017-12-26T09:46:11.126Z,5.20
2017-12-26T09:48:38.746Z,5.30
2017-12-26T09:51:06.600Z,5.40
2017-12-26T09:53:34.218Z,5.40
2017-12-26T09:56:01.901Z,5.50
2017-12-26T09:58:29.563Z,5.60
2017-12-26T10:00:57.192Z,5.70
2017-12-26T10:03:24.839Z,5.80
2017-12-26T10:05:52.486Z,5.80
2017-12-26T10:08:20.182Z,5.80
2017-12-26T10:10:48.022Z,5.90
2017-12-26T10:13:15.668Z,6.10
2017-12-26T10:15:43.325Z,6.10
2017-12-26T10:18:10.961Z,6.10
2017-12-26T10:20:38.728Z,6.20
2017-12-26T10:23:08.042Z,6.20
2017-12-26T10:25:35.911Z,6.10
2017-12-26T10:28:03.603Z,6.10
2017-12-26T10:30:31.231Z,6.00
2017-12-26T10:32:59.226Z,6.10
2017-12-26T10:35:27.766Z,6.30
2017-12-26T10:37:55.394Z,6.20
2017-12-26T10:40:23.054Z,6.40
2017-12-26T10:42:50.730Z,6.50
2017-12-26T10:45:19.150Z,6.50
2017-12-26T10:47:47.147Z,6.40
2017-12-26T10:50:15.543Z,6.70
2017-12-26T10:52:44.159Z,6.70
2017-12-26T10:55:11.791Z,6.90
2017-12-26T10:57:39.481Z,6.90
2017-12-26T11:00:08.067Z,7.00
2017-12-26T11:02:35.734Z,6.90
2017-12-26T11:05:03.413Z,6.90
2017-12-26T11:07:31.075Z,6.90
2017-12-26T11:09:58.730Z,7.00
2017-12-26T11:12:27.159Z,7.20
2017-12-26T11:14:54.789Z,7.10
2017-12-26T11:17:22.438Z,7.20
2017-12-26T11:19:50.113Z,7.40
2017-12-26T11:22:17.914Z,7.40
2017-12-26T11:24:45.569Z,7.40
2017-12-26T11:27:13.190Z,7.20
2017-12-26T11:29:41.645Z,7.40
2017-12-26T11:32:10.057Z,7.50
2017-12-26T11:37:11.663Z,7.70
2017-12-26T11:39:40.092Z,7.80
2017-12-26T11:42:07.937Z,7.70
2017-12-26T11:44:35.573Z,7.60
2017-12-26T11:47:03.226Z,7.50
2017-12-26T11:49:30.858Z,7.60
2017-12-26T11:51:58.506Z,7.70
2017-12-26T11:54:26.174Z,7.80
2017-12-26T11:56:53.803Z,7.60
2017-12-26T11:59:21.437Z,7.60
2017-12-26T12:01:49.102Z,7.70
2017-12-26T12:04:16.790Z,7.60
2017-12-26T12:06:45.187Z,7.40
2017-12-26T12:09:12.850Z,7.30
2017-12-26T12:11:40.467Z,7.20
2017-12-26T12:14:08.176Z,7.20
2017-12-26T12:16:35.833Z,7.20
2017-12-26T12:19:03.702Z,7.10
2017-12-26T12:21:32.116Z,6.90
2017-12-26T12:23:59.790Z,6.80
2017-12-26T12:26:27.409Z,6.80
2017-12-26T12:28:55.023Z,6.80
2017-12-26T12:31:22.691Z,6.70
2017-12-26T12:33:50.316Z,6.70
2017-12-26T12:36:17.996Z,6.50
2017-12-26T12:38:45.684Z,6.50
2017-12-26T12:41:14.091Z,6.40
2017-12-26T12:43:41.749Z,6.40
2017-12-26T12:46:09.372Z,6.40
2017-12-26T12:48:37.156Z,6.40
2017-12-26T12:51:04.798Z,6.30
2017-12-26T12:53:32.438Z,6.20
2017-12-26T12:56:00.108Z,6.30
2017-12-26T12:58:27.730Z,6.30
2017-12-26T13:00:55.359Z,6.40
2017-12-26T13:03:23.042Z,6.50
2017-12-26T13:05:50.682Z,6.80
2017-12-26T13:08:18.346Z,6.70
2017-12-26T13:10:46.044Z,6.70
2017-12-26T13:13:13.800Z,6.80
2017-12-26T13:15:41.454Z,6.70
2017-12-26T13:18:09.092Z,6.80
2017-12-26T13:20:36.778Z,6.80
2017-12-26T13:23:04.415Z,6.90
2017-12-26T13:25:32.057Z,7.00
2017-12-26T13:27:59.742Z,7.20
2017-12-26T13:30:28.220Z,7.60
2017-12-26T13:32:57.230Z,7.50
2017-12-26T13:35:24.855Z,7.70
2017-12-26T13:37:52.491Z,7.90
2017-12-26T13:40:20.175Z,8.00
2017-12-26T13:42:47.876Z,8.20
2017-12-26T13:45:16.299Z,8.50
2017-12-26T13:47:43.931Z,8.40
2017-12-26T13:50:11.574Z,8.30
2017-12-26T13:52:39.221Z,8.20
2017-12-26T13:55:07.090Z,8.00
2017-12-26T13:57:34.748Z,8.20
2017-12-26T14:00:02.353Z,8.40
2017-12-26T14:02:29.997Z,8.30
2017-12-26T14:04:57.735Z,8.20
2017-12-26T14:07:25.367Z,8.10
2017-12-26T14:09:53.796Z,7.90
2017-12-26T14:12:21.435Z,7.90
2017-12-26T14:14:49.073Z,7.90
2017-12-26T14:17:16.962Z,7.90
2017-12-26T14:19:44.589Z,7.90
2017-12-26T14:22:12.250Z,7.80
2017-12-26T14:24:39.873Z,7.60
2017-12-26T14:27:07.713Z,7.70
2017-12-26T14:29:35.373Z,7.60
2017-12-26T14:32:03.006Z,7.50
2017-12-26T14:34:30.663Z,7.50
2017-12-26T14:36:58.296Z,7.50
2017-12-26T14:39:26.091Z,7.50
2017-12-26T14:41:53.802Z,7.60
2017-12-26T14:44:21.427Z,7.60
2017-12-26T14:46:49.109Z,7.80
2017-12-26T14:49:16.786Z,7.90
2017-12-26T14:51:45.167Z,8.00
2017-12-26T14:54:12.828Z,7.90
2017-12-26T14:56:40.470Z,8.00
2017-12-26T14:59:08.289Z,8.00
2017-12-26T15:01:36.787Z,8.10
2017-12-26T15:04:04.393Z,8.10
2017-12-26T15:06:32.060Z,8.10
2017-12-26T15:09:00.454Z,8.20
2017-12-26T15:11:28.332Z,8.10
2017-12-26T15:13:56.225Z,8.10
2017-12-26T15:16:24.607Z,8.10
2017-12-26T15:18:52.271Z,8.00
2017-12-26T15:21:19.906Z,8.00
2017-12-26T15:23:47.610Z,7.90
2017-12-26T15:26:15.294Z,7.80
2017-12-26T15:28:42.912Z,7.80
2017-12-26T15:31:10.573Z,7.70
2017-12-26T15:33:38.976Z,7.50
2017-12-26T15:36:06.674Z,7.50
2017-12-26T15:38:34.321Z,7.50
2017-12-26T15:41:01.938Z,7.40
2017-12-26T15:43:29.600Z,7.40
2017-12-26T15:45:57.234Z,7.40
2017-12-26T15:48:24.895Z,7.40
2017-12-26T15:50:52.529Z,7.40
2017-12-26T15:53:20.138Z,7.30
2017-12-26T15:55:47.801Z,7.30
2017-12-26T15:58:15.425Z,7.40
2017-12-26T16:00:43.085Z,7.40
2017-12-26T16:03:10.713Z,7.40
2017-12-26T16:05:38.374Z,7.50
2017-12-26T16:08:06.199Z,7.60
2017-12-26T16:10:34.585Z,8.10
2017-12-26T16:13:02.232Z,8.10
2017-12-26T16:15:29.842Z,8.30
2017-12-26T16:17:58.233Z,8.50
2017-12-26T16:20:25.955Z,8.50
2017-12-26T16:22:53.712Z,8.60
2017-12-26T16:25:21.369Z,8.60
2017-12-26T16:27:48.986Z,8.60
2017-12-26T16:30:16.697Z,8.70
2017-12-26T16:32:44.358Z,8.60
2017-12-26T16:35:11.970Z,8.60
2017-12-26T16:37:39.636Z,8.50
2017-12-26T16:40:07.238Z,8.50
2017-12-26T16:42:35.622Z,8.40
2017-12-26T16:45:03.315Z,8.40
2017-12-26T16:47:30.941Z,8.40
2017-12-26T16:49:58.581Z,8.40
2017-12-26T16:52:26.232Z,8.30
2017-12-26T16:54:53.858Z,8.20
2017-12-26T16:57:21.538Z,7.90
2017-12-26T16:59:49.153Z,7.60
2017-12-26T17:02:17.015Z,7.50
2017-12-26T17:04:44.646Z,7.30
2017-12-26T17:07:12.281Z,7.20
2017-12-26T17:09:41.177Z,7.00
2017-12-26T17:12:11.916Z,6.80
2017-12-26T17:14:40.520Z,6.60
2017-12-26T17:17:08.282Z,6.50
2017-12-26T17:19:37.453Z,6.30
2017-12-26T17:22:05.787Z,6.30
2017-12-26T17:24:33.397Z,6.10
2017-12-26T17:27:01.055Z,6.00
2017-12-26T17:29:28.672Z,6.00
2017-12-26T17:31:57.182Z,6.00
2017-12-26T17:34:24.837Z,6.00
2017-12-26T17:36:52.455Z,6.00
2017-12-26T17:39:20.115Z,5.90
2017-12-26T17:41:47.800Z,5.80
2017-12-26T17:44:15.430Z,5.80
2017-12-26T17:46:43.111Z,5.70
2017-12-26T17:49:11.505Z,5.70
2017-12-26T17:51:39.964Z,5.60
2017-12-26T17:54:07.689Z,5.70
2017-12-26T17:56:35.347Z,5.60
2017-12-26T17:59:03.780Z,5.70
2017-12-26T18:01:31.404Z,5.70
2017-12-26T18:03:59.052Z,5.80
2017-12-26T18:06:27.505Z,5.80
2017-12-26T18:08:55.148Z,5.80
2017-12-26T18:11:22.803Z,5.80
2017-12-26T18:13:50.415Z,5.90
2017-12-26T18:16:18.206Z,5.90
2017-12-26T18:18:45.834Z,6.00
2017-12-26T18:21:14.961Z,6.00
2017-12-26T18:23:43.389Z,6.00
2017-12-26T18:26:11.091Z,5.90
2017-12-26T18:31:11.823Z,5.90
2017-12-26T18:33:41.220Z,5.90
2017-12-26T18:36:08.845Z,5.80
2017-12-26T18:38:37.220Z,5.90
2017-12-26T18:41:04.881Z,5.80
2017-12-26T18:43:32.493Z,5.80
2017-12-26T18:46:00.131Z,5.80
2017-12-26T18:48:27.765Z,5.70
2017-12-26T18:50:55.450Z,5.60
2017-12-26T18:53:23.109Z,5.50
2017-12-26T18:55:50.743Z,5.40
2017-12-26T18:58:18.405Z,5.30
2017-12-26T19:00:46.041Z,5.30
2017-12-26T19:03:13.859Z,5.20
2017-12-26T19:05:41.607Z,5.10
2017-12-26T19:08:09.220Z,5.00
2017-12-26T19:10:37.032Z,5.00
2017-12-26T19:13:04.678Z,4.90
2017-12-26T19:15:32.295Z,4.90
2017-12-26T19:17:59.955Z,4.90
2017-12-26T19:20:27.717Z,4.90
2017-12-26T19:22:56.155Z,4.90
2017-12-26T19:25:24.584Z,4.80
2017-12-26T19:27:52.222Z,4.80
2017-12-26T19:30:21.013Z,4.80
2017-12-26T19:32:49.353Z,4.70
2017-12-26T19:35:17.151Z,4.70
2017-12-26T19:37:44.776Z,4.80
2017-12-26T19:40:12.400Z,4.80
2017-12-26T19:42:40.053Z,4.90
2017-12-26T19:45:07.757Z,4.90
2017-12-26T19:47:36.214Z,4.80
2017-12-26T19:50:03.836Z,4.70
2017-12-26T19:52:31.473Z,4.80
2017-12-26T19:54:59.846Z,4.80
2017-12-26T19:57:27.746Z,4.80
2017-12-26T19:59:55.420Z,4.70
2017-12-26T20:02:23.064Z,4.70
2017-12-26T20:04:50.725Z,4.70
2017-12-26T20:07:18.408Z,4.60
2017-12-26T20:09:46.053Z,4.60
2017-12-26T20:12:14.340Z,4.60
2017-12-26T20:14:42.441Z,4.50
2017-12-26T20:17:10.152Z,4.30
2017-12-26T20:19:38.794Z,4.20
2017-12-26T20:22:07.204Z,4.10
2017-12-26T20:24:34.885Z,4.00
2017-12-26T20:27:02.524Z,4.00
2017-12-26T20:29:30.179Z,4.00
2017-12-26T20:31:57.911Z,4.00
2017-12-26T20:34:25.532Z,4.00
2017-12-26T20:36:53.170Z,4.10
2017-12-26T20:39:20.826Z,3.90
2017-12-26T20:41:48.439Z,3.90
2017-12-26T20:44:16.132Z,3.80
2017-12-26T20:46:44.585Z,3.70
2017-12-26T20:49:12.243Z,3.70
2017-12-26T20:51:39.853Z,3.60
2017-12-26T20:54:08.238Z,3.50
2017-12-26T20:56:36.181Z,3.40
2017-12-26T20:59:03.809Z,3.50
2017-12-26T21:01:31.471Z,3.40
2017-12-26T21:03:59.861Z,3.30
2017-12-26T21:06:27.614Z,3.20
2017-12-26T21:08:55.273Z,3.20
2017-12-26T21:11:22.888Z,3.20
2017-12-26T21:13:50.541Z,3.10
2017-12-26T21:16:18.270Z,3.10
2017-12-26T21:18:46.736Z,3.10
2017-12-26T21:21:15.146Z,3.10
2017-12-26T21:23:42.790Z,3.00
2017-12-26T21:26:10.457Z,3.00
2017-12-26T21:28:38.254Z,3.10
2017-12-26T21:31:05.864Z,3.10
2017-12-26T21:33:33.526Z,3.00
2017-12-26T21:36:01.182Z,3.00
2017-12-26T21:38:29.615Z,3.10
2017-12-26T21:40:57.226Z,3.00
2017-12-26T21:43:24.870Z,3.00
2017-12-26T21:45:52.526Z,3.10
2017-12-26T21:48:20.132Z,3.20
2017-12-26T21:50:47.828Z,3.20
2017-12-26T21:53:15.462Z,3.20
2017-12-26T21:55:43.096Z,3.30
2017-12-26T21:58:10.810Z,3.30
2017-12-26T22:00:38.417Z,3.40
2017-12-26T22:03:06.093Z,3.40
2017-12-26T22:05:33.832Z,3.40
2017-12-26T22:08:01.458Z,3.40
2017-12-26T22:10:29.117Z,3.30
2017-12-26T22:12:56.907Z,3.40
2017-12-26T22:15:25.315Z,3.50
2017-12-26T22:17:52.932Z,3.50
2017-12-26T22:20:20.557Z,3.60
2017-12-26T22:22:48.998Z,3.60
2017-12-26T22:25:16.734Z,3.60
2017-12-26T22:27:44.391Z,3.60
2017-12-26T22:30:12.014Z,3.70
2017-12-26T22:32:39.648Z,3.70
2017-12-26T22:35:07.324Z,3.70
2017-12-26T22:37:34.933Z,3.70
2017-12-26T22:40:02.594Z,3.70
2017-12-26T22:42:30.205Z,3.70
2017-12-26T22:44:58.048Z,3.70
2017-12-26T22:47:26.755Z,3.50
2017-12-26T22:49:54.361Z,3.40
2017-12-26T22:52:22.789Z,3.30
2017-12-26T22:54:50.431Z,3.30
2017-12-26T22:57:18.120Z,3.20
2017-12-26T22:59:45.785Z,3.10
2017-12-26T23:02:13.417Z,3.00
2017-12-26T23:04:41.841Z,3.00
2017-12-26T23:07:09.485Z,3.00
2017-12-26T23:09:37.171Z,3.00
2017-12-26T23:12:05.598Z,3.20
2017-12-26T23:17:42.156Z,3.20
2017-12-26T23:20:15.410Z,3.30
2017-12-26T23:22:43.065Z,3.20
2017-12-26T23:25:16.484Z,3.30
2017-12-26T23:27:50.650Z,3.40
2017-12-26T23:30:24.002Z,3.40
2017-12-26T23:32:57.193Z,3.40
2017-12-26T23:35:30.537Z,3.40
2017-12-26T23:38:04.724Z,3.30
2017-12-26T23:40:37.963Z,3.30
2017-12-26T23:43:11.237Z,3.30
2017-12-26T23:45:44.445Z,3.30
2017-12-26T23:48:17.642Z,3.40
2017-12-26T23:50:51.755Z,3.50
2017-12-26T23:53:25.027Z,3.40
2017-12-26T23:55:59.107Z,3.40
